Flight Track Log - Related Links

Times and Time Zones

All times are in EDT time to prevent confusion due to time zone crossing. See the N588XL flight status page for this flight to view local times or setup timezone preferences in your user account.

Time Position Orientation Groundspeed Altitude Reporting Facility
EDT Latitude Longitude Course Direction KTS MPH feet Rate Location/Type
Sat 09:27:35 AM 41.1833 -73.0833 56° Northeast 90 104 1,200  Level New York TRACON
Sat 09:28:35 AM 41.2000 -73.0500 56° Northeast 73 84 1,800 600 Climbing New York TRACON
Sat 09:29:35 AM 41.2000 -73.0333 90° East 74 85 2,400 550 Climbing New York TRACON
Sat 09:30:35 AM 41.2167 -73.0000 56° Northeast 73 84 2,900 450 Climbing New York TRACON
Sat 09:31:35 AM 41.2167 -72.9833 90° East 83 96 3,300 450 Climbing New York TRACON
Sat 09:32:35 AM 41.2333 -72.9500 56° Northeast 88 101 3,800 450 Climbing New York TRACON
Sat 09:33:35 AM 41.2500 -72.9333 37° Northeast 88 101 4,200 400 Climbing New York TRACON
Sat 09:34:35 AM 41.2500 -72.9000 90° East 95 109 4,600 350 Climbing New York TRACON
Sat 09:35:35 AM 41.2667 -72.8667 56° Northeast 96 110 4,900 333 Climbing New York TRACON
Sat 09:36:41 AM 41.2667 -72.8333 90° East 100 115 5,300 333 Climbing New York TRACON
Sat 09:37:41 AM 41.2833 -72.8000 56° Northeast 96 110 5,600 300 Climbing New York TRACON
Sat 09:38:41 AM 41.2833 -72.7667 90° East 102 117 5,900 263 Climbing New York TRACON
Sat 09:39:35 AM 41.3000 -72.7333 56° Northeast 102 117 6,100 -158 Climbing New York TRACON
Sat 09:40:35 AM 41.3167 -72.6833 66° East 139 160 5,600 -500 Descending New York TRACON
Sat 09:41:35 AM 41.3333 -72.6333 66° East 135 155 5,100 -221 Descending New York TRACON
Sat 09:43:18 AM 41.3511 -72.5689 70° East 126 145 5,000 -73 Descending Boston Center
Sat 09:44:19 AM 41.3661 -72.5242 66° East 126 145 4,900  Descending Boston Center
Sat 09:45:19 AM 41.3614 -72.4792 98° East 125 144 5,000  Climbing Boston Center
Sat 09:46:20 AM 41.3572 -72.4339 97° East 124 143 4,900  Descending Boston Center
Sat 09:47:24 AM 41.3717 -72.3911 66° East 128 147 5,000  Climbing Boston Center
Sat 09:48:24 AM 41.3886 -72.3483 62° Northeast 126 145 4,900  Descending Boston Center
Sat 09:48:36 AM 41.3911 -72.3428 59° Northeast 124 143 5,000 98 Climbing Boston Center
Sat 09:49:25 AM 41.4022 -72.3044 69° East 128 147 5,000  Level Boston Center
Sat 09:49:37 AM 41.4053 -72.2964 63° Northeast 129 148 5,000  Level Boston Center
Sat 09:50:28 AM 41.4158 -72.2639 67° East 126 145 5,000  Level Boston Center
Sat 09:51:29 AM 41.4297 -72.2172 68° East 126 145 5,000 -49 Level Boston Center
Sat 09:52:30 AM 41.4442 -72.1747 66° East 126 145 4,900 -50 Descending Boston Center
Sat 09:53:30 AM 41.4558 -72.1311 70° East 126 145 4,900 50 Level Boston Center
Sat 09:54:30 AM 41.4717 -72.0861 65° Northeast 126 145 5,000  Climbing Boston Center
Sat 09:55:34 AM 41.4844 -72.0442 68° East 125 144 4,900 -48 Descending Boston Center
Sat 09:56:35 AM 41.4958 -72.0017 70° East 125 144 4,900 82 Level Boston Center
Sat 09:56:47 AM 41.4983 -71.9914 72° East 127 146 5,000 100 Climbing Boston Center
Sat 09:57:35 AM 41.5106 -71.9606 62° Northeast 124 143 5,000  Level Boston Center
Sat 09:57:47 AM 41.5158 -71.9492 58° Northeast 131 151 5,000  Level Boston Center
Sat 09:58:38 AM 41.5286 -71.9164 62° Northeast 124 143 5,000  Level Boston Center
Sat 09:58:50 AM 41.5322 -71.9119 43° Northeast 122 140 5,000  Level Boston Center
Sat 09:59:39 AM 41.5436 -71.8756 67° East 124 143 5,000 -50 Level Boston Center
Sat 10:00:50 AM 41.5600 -71.8214 68° East 124 143 4,900  Descending Boston Center
Sat 10:01:42 AM 41.5736 -71.7878 62° Northeast 124 143 5,000 90 Climbing Boston Center
Sat 10:01:57 AM 41.5775 -71.7789 60° Northeast 122 140 5,000  Level Boston Center
Sat 10:02:43 AM 41.5889 -71.7478 64° Northeast 124 143 5,000  Level Boston Center
Sat 10:03:43 AM 41.6047 -71.7061 63° Northeast 124 143 5,000  Level Boston Center
Sat 10:04:45 AM 41.6189 -71.6625 67° East 123 142 5,000  Level Boston Center
Sat 10:05:37 AM 41.6303 -71.6286 66° East 123 142 5,000  Level Boston Center
Sat 10:06:35 AM 41.6458 -71.5853 64° Northeast 124 143 5,000  Level Boston Center
Sat 10:06:47 AM 41.6486 -71.5778 64° Northeast 125 144 5,000 -91 Level Boston Center
Sat 10:07:41 AM 41.6622 -71.5364 66° East 129 148 4,900  Descending Boston Center
Sat 10:08:41 AM 41.6797 -71.4939 61° Northeast 128 147 5,000 50 Climbing Boston Center
Sat 10:09:42 AM 41.6944 -71.4531 64° Northeast 124 143 5,000 -49 Level Boston Center
Sat 10:10:44 AM 41.7100 -71.4097 64° Northeast 130 150 4,900  Descending Boston Center
Sat 10:11:54 AM 41.7219 -71.3600 72° East 125 144 5,000 47 Climbing Boston Center
Sat 10:12:51 AM 41.7306 -71.3192 74° East 124 143 5,000  Level Boston Center
Sat 10:13:45 AM 41.7408 -71.2797 71° East 125 144 5,000  Level Boston Center
Sat 10:13:57 AM 41.7431 -71.2689 75° East 125 144 5,000  Level Boston Center
Sat 10:14:46 AM 41.7481 -71.2333 79° East 125 144 5,000  Level Boston Center
Sat 10:14:58 AM 41.7511 -71.2242 66° East 124 143 5,000  Level Boston Center
Sat 10:15:59 AM 41.7564 -71.1789 81° East 124 143 5,000 48 Level Boston Center
Sat 10:17:02 AM 41.7661 -71.1317 75° East 123 142 5,100  Climbing Boston Center
Sat 10:18:03 AM 41.7742 -71.0886 76° East 121 139 5,000 -49 Descending Boston Center
Sat 10:19:04 AM 41.7792 -71.0453 81° East 120 138 5,000  Level Boston Center
Sat 10:20:05 AM 41.7881 -70.9983 76° East 120 138 5,000  Level Boston Center
Sat 10:21:09 AM 41.7953 -70.9533 78° East 122 140 5,000  Level Boston Center
Sat 10:22:10 AM 41.8019 -70.9086 79° East 122 140 5,000  Level Boston Center
Sat 10:23:11 AM 41.8056 -70.8597 84° East 123 142 5,000 -248 Level Boston Center
Sat 10:24:11 AM 41.8122 -70.8108 80° East 132 152 4,500 -496 Descending Boston Center
Sat 10:25:12 AM 41.8167 -70.7617 83° East 133 153 4,000 -242 Descending Boston Center
Sat 10:26:15 AM 41.8239 -70.7144 78° East 132 152 4,000  Level Boston Center
Sat 10:27:16 AM 41.8264 -70.6683 86° East 125 144 4,000 -194 Level Boston Center
Sat 10:28:19 AM 41.8367 -70.6231 73° East 124 143 3,600 -532 Descending Boston Center
Sat 10:29:20 AM 41.8403 -70.5681 85° East 130 150 2,900 -545 Descending Boston Center
Sat 10:30:20 AM 41.8419 -70.5308 87° East 122 140 2,500 -292 Descending Boston Center
Sat 10:32:25 AM 41.8106 -70.4547 119° Southeast 109 125 2,000 -162 Descending Boston Center
Sat 10:33:25 AM 41.7931 -70.4269 130° Southeast 103 119 2,000  Level Boston Center
Sat 10:34:25 AM 41.7728 -70.4033 139° Southeast 100 115 2,000  Level Boston Center
Sat 10:35:29 AM 41.7514 -70.3806 142° Southeast 100 115 2,000 -144 Level Boston Center
Sat 10:36:30 AM 41.7319 -70.3572 138° Southeast 100 115 1,700 -397 Descending Boston Center
Sat 10:37:30 AM 41.7097 -70.3311 139° Southeast 100 115 1,200 -595 Descending Boston Center
Sat 10:38:31 AM 41.6861 -70.3056 141° Southeast 105 121 500 -484 Descending Boston Center
Sat 10:39:34 AM 41.6606 -70.2753 138° Southeast 105 121 200 -286 Descending Boston Center

Login

Don't have an account? Register now (free) for customized features, flight alerts, and more!